Ortonville, Minnesota
Current Conditions -  °F | °C
As of 1:34 PM on Friday 31 Oct 2014 (Local Time) from KVVV Reporting Station
Clear Clear  
Wind Chill: 36°   Ceiling: Unl
Heat Index: 36°   Visibility: 10mi
Dew Point: 19°   Wind: 3mph
Humidity: 52%   Direction: 110°ESE
Pressure: 30.54"   Gusts: NA
Location:  45.3°N, 96.44°W
Report Text: KVVV 311834Z AUTO 11003KT 10SM CLR 02/M07 A3054 RMK AO2
Loading
Personal Weather Stations






























Interactive Weather Map
Tropical Storm Tracking
New forecast layout! Learn more

10-Day Weather Forecast

Advertisements
Track Severe Weather on mobile